sensor_id;sensor_type;location;lat;lon;timestamp;P1;durP1;ratioP1;P2;durP2;ratioP2
54993;SDS011;40891;47.242;8.648;2023-02-28T00:00:09;9.77;;;6.10;;
54993;SDS011;40891;47.242;8.648;2023-02-28T00:02:40;8.00;;;5.57;;
54993;SDS011;40891;47.242;8.648;2023-02-28T00:05:07;7.97;;;5.03;;
54993;SDS011;40891;47.242;8.648;2023-02-28T00:07:33;8.33;;;4.63;;
54993;SDS011;40891;47.242;8.648;2023-02-28T00:09:59;9.20;;;5.20;;
54993;SDS011;40891;47.242;8.648;2023-02-28T00:12:25;6.53;;;4.83;;
54993;SDS011;40891;47.242;8.648;2023-02-28T00:14:50;7.47;;;5.00;;
54993;SDS011;40891;47.242;8.648;2023-02-28T00:17:16;6.70;;;4.57;;
54993;SDS011;40891;47.242;8.648;2023-02-28T00:19:42;8.23;;;5.10;;
54993;SDS011;40891;47.242;8.648;2023-02-28T00:22:08;8.23;;;5.07;;
54993;SDS011;40891;47.242;8.648;2023-02-28T00:24:33;12.17;;;5.67;;
54993;SDS011;40891;47.242;8.648;2023-02-28T00:26:59;9.80;;;5.17;;
54993;SDS011;40891;47.242;8.648;2023-02-28T00:29:24;7.93;;;5.27;;
54993;SDS011;40891;47.242;8.648;2023-02-28T00:31:49;9.77;;;5.60;;
54993;SDS011;40891;47.242;8.648;2023-02-28T00:34:15;9.23;;;5.27;;
54993;SDS011;40891;47.242;8.648;2023-02-28T00:36:40;8.07;;;5.17;;
54993;SDS011;40891;47.242;8.648;2023-02-28T00:39:10;11.13;;;5.57;;
54993;SDS011;40891;47.242;8.648;2023-02-28T00:41:35;9.27;;;5.60;;
54993;SDS011;40891;47.242;8.648;2023-02-28T00:44:01;10.57;;;5.73;;
54993;SDS011;40891;47.242;8.648;2023-02-28T00:46:26;7.60;;;5.33;;
54993;SDS011;40891;47.242;8.648;2023-02-28T00:48:51;8.63;;;5.73;;
54993;SDS011;40891;47.242;8.648;2023-02-28T00:51:17;10.13;;;6.03;;
54993;SDS011;40891;47.242;8.648;2023-02-28T00:53:42;10.70;;;5.50;;
54993;SDS011;40891;47.242;8.648;2023-02-28T00:56:07;8.30;;;5.27;;
54993;SDS011;40891;47.242;8.648;2023-02-28T00:58:33;12.60;;;5.63;;
54993;SDS011;40891;47.242;8.648;2023-02-28T01:00:58;9.67;;;5.93;;
54993;SDS011;40891;47.242;8.648;2023-02-28T01:03:23;9.03;;;5.90;;
54993;SDS011;40891;47.242;8.648;2023-02-28T01:05:49;8.53;;;5.73;;
54993;SDS011;40891;47.242;8.648;2023-02-28T01:08:15;9.17;;;5.63;;
54993;SDS011;40891;47.242;8.648;2023-02-28T01:10:41;9.17;;;6.00;;
54993;SDS011;40891;47.242;8.648;2023-02-28T01:13:07;8.17;;;5.83;;
54993;SDS011;40891;47.242;8.648;2023-02-28T01:15:32;9.90;;;5.30;;
54993;SDS011;40891;47.242;8.648;2023-02-28T01:17:58;10.23;;;6.40;;
54993;SDS011;40891;47.242;8.648;2023-02-28T01:20:23;11.27;;;5.47;;
54993;SDS011;40891;47.242;8.648;2023-02-28T01:22:49;9.70;;;6.40;;
54993;SDS011;40891;47.242;8.648;2023-02-28T01:25:14;9.90;;;6.17;;
54993;SDS011;40891;47.242;8.648;2023-02-28T01:27:40;9.27;;;6.00;;
54993;SDS011;40891;47.242;8.648;2023-02-28T01:30:06;7.80;;;5.67;;
54993;SDS011;40891;47.242;8.648;2023-02-28T01:32:32;10.33;;;6.43;;
54993;SDS011;40891;47.242;8.648;2023-02-28T01:34:58;8.83;;;5.30;;
54993;SDS011;40891;47.242;8.648;2023-02-28T01:37:23;8.03;;;5.93;;
54993;SDS011;40891;47.242;8.648;2023-02-28T01:39:48;12.47;;;6.10;;
54993;SDS011;40891;47.242;8.648;2023-02-28T01:42:14;11.90;;;6.20;;
54993;SDS011;40891;47.242;8.648;2023-02-28T01:44:57;9.00;;;5.73;;
54993;SDS011;40891;47.242;8.648;2023-02-28T01:47:35;11.03;;;5.97;;
54993;SDS011;40891;47.242;8.648;2023-02-28T01:50:04;11.20;;;6.00;;
54993;SDS011;40891;47.242;8.648;2023-02-28T01:52:32;12.97;;;5.87;;
54993;SDS011;40891;47.242;8.648;2023-02-28T01:54:59;8.77;;;5.50;;
54993;SDS011;40891;47.242;8.648;2023-02-28T01:58:09;9.27;;;5.37;;
54993;SDS011;40891;47.242;8.648;2023-02-28T02:00:18;12.87;;;6.23;;
54993;SDS011;40891;47.242;8.648;2023-02-28T02:02:47;10.47;;;6.23;;
54993;SDS011;40891;47.242;8.648;2023-02-28T02:05:16;14.60;;;6.30;;
54993;SDS011;40891;47.242;8.648;2023-02-28T02:07:45;9.93;;;6.17;;
54993;SDS011;40891;47.242;8.648;2023-02-28T02:10:13;9.43;;;6.47;;
54993;SDS011;40891;47.242;8.648;2023-02-28T02:18:31;10.37;;;6.10;;
54993;SDS011;40891;47.242;8.648;2023-02-28T02:23:39;9.60;;;5.93;;
54993;SDS011;40891;47.242;8.648;2023-02-28T02:26:29;10.63;;;6.13;;
54993;SDS011;40891;47.242;8.648;2023-02-28T02:32:04;12.00;;;5.70;;
54993;SDS011;40891;47.242;8.648;2023-02-28T02:40:58;7.70;;;6.03;;
54993;SDS011;40891;47.242;8.648;2023-02-28T02:43:46;11.20;;;6.37;;
54993;SDS011;40891;47.242;8.648;2023-02-28T02:46:29;10.67;;;7.10;;
54993;SDS011;40891;47.242;8.648;2023-02-28T02:48:59;12.20;;;6.27;;
54993;SDS011;40891;47.242;8.648;2023-02-28T02:51:27;10.37;;;6.17;;
54993;SDS011;40891;47.242;8.648;2023-02-28T02:54:11;10.17;;;6.10;;
54993;SDS011;40891;47.242;8.648;2023-02-28T02:56:42;11.87;;;6.90;;
54993;SDS011;40891;47.242;8.648;2023-02-28T02:59:11;9.03;;;6.00;;
54993;SDS011;40891;47.242;8.648;2023-02-28T03:01:45;11.03;;;7.20;;
54993;SDS011;40891;47.242;8.648;2023-02-28T03:04:16;12.83;;;6.70;;
54993;SDS011;40891;47.242;8.648;2023-02-28T03:06:43;11.77;;;6.83;;
54993;SDS011;40891;47.242;8.648;2023-02-28T03:09:09;10.20;;;6.13;;
54993;SDS011;40891;47.242;8.648;2023-02-28T03:11:35;9.60;;;6.07;;
54993;SDS011;40891;47.242;8.648;2023-02-28T03:19:47;9.87;;;6.00;;
54993;SDS011;40891;47.242;8.648;2023-02-28T03:28:28;9.67;;;6.20;;
54993;SDS011;40891;47.242;8.648;2023-02-28T03:30:59;10.60;;;6.00;;
54993;SDS011;40891;47.242;8.648;2023-02-28T03:36:51;10.33;;;6.47;;
54993;SDS011;40891;47.242;8.648;2023-02-28T03:39:21;12.93;;;6.60;;
54993;SDS011;40891;47.242;8.648;2023-02-28T03:41:52;8.90;;;6.33;;
54993;SDS011;40891;47.242;8.648;2023-02-28T03:44:25;11.60;;;6.60;;
54993;SDS011;40891;47.242;8.648;2023-02-28T03:46:58;11.43;;;6.40;;
54993;SDS011;40891;47.242;8.648;2023-02-28T03:49:30;9.40;;;6.10;;
54993;SDS011;40891;47.242;8.648;2023-02-28T03:52:00;11.30;;;6.93;;
54993;SDS011;40891;47.242;8.648;2023-02-28T03:54:31;9.70;;;6.40;;
54993;SDS011;40891;47.242;8.648;2023-02-28T03:57:02;10.67;;;6.70;;
54993;SDS011;40891;47.242;8.648;2023-02-28T03:59:37;11.40;;;6.60;;
54993;SDS011;40891;47.242;8.648;2023-02-28T04:02:15;9.07;;;5.90;;
54993;SDS011;40891;47.242;8.648;2023-02-28T04:04:41;10.70;;;6.43;;
54993;SDS011;40891;47.242;8.648;2023-02-28T04:07:13;9.37;;;6.00;;
54993;SDS011;40891;47.242;8.648;2023-02-28T04:09:39;10.57;;;6.27;;
54993;SDS011;40891;47.242;8.648;2023-02-28T04:12:05;11.27;;;6.40;;
54993;SDS011;40891;47.242;8.648;2023-02-28T04:14:30;9.93;;;6.13;;
54993;SDS011;40891;47.242;8.648;2023-02-28T04:16:56;10.90;;;6.57;;
54993;SDS011;40891;47.242;8.648;2023-02-28T04:19:21;9.60;;;6.10;;
54993;SDS011;40891;47.242;8.648;2023-02-28T04:21:47;10.77;;;6.07;;
54993;SDS011;40891;47.242;8.648;2023-02-28T04:24:15;9.93;;;6.70;;
54993;SDS011;40891;47.242;8.648;2023-02-28T04:26:43;10.70;;;6.60;;
54993;SDS011;40891;47.242;8.648;2023-02-28T04:29:12;9.93;;;6.60;;
54993;SDS011;40891;47.242;8.648;2023-02-28T04:31:39;9.67;;;6.67;;
54993;SDS011;40891;47.242;8.648;2023-02-28T04:34:04;10.73;;;6.53;;
54993;SDS011;40891;47.242;8.648;2023-02-28T04:36:30;9.57;;;6.00;;
54993;SDS011;40891;47.242;8.648;2023-02-28T04:38:56;10.00;;;5.87;;
54993;SDS011;40891;47.242;8.648;2023-02-28T04:41:22;10.27;;;6.50;;
54993;SDS011;40891;47.242;8.648;2023-02-28T04:43:47;11.43;;;6.60;;
54993;SDS011;40891;47.242;8.648;2023-02-28T04:46:13;10.30;;;6.23;;
54993;SDS011;40891;47.242;8.648;2023-02-28T04:48:38;10.30;;;6.17;;
54993;SDS011;40891;47.242;8.648;2023-02-28T04:53:35;11.03;;;6.83;;
54993;SDS011;40891;47.242;8.648;2023-02-28T04:56:02;11.37;;;7.17;;
54993;SDS011;40891;47.242;8.648;2023-02-28T04:58:27;10.93;;;6.53;;
54993;SDS011;40891;47.242;8.648;2023-02-28T05:00:53;9.27;;;6.27;;
54993;SDS011;40891;47.242;8.648;2023-02-28T05:03:19;10.67;;;6.10;;
54993;SDS011;40891;47.242;8.648;2023-02-28T05:05:48;10.10;;;6.37;;
54993;SDS011;40891;47.242;8.648;2023-02-28T05:08:13;11.03;;;6.43;;
54993;SDS011;40891;47.242;8.648;2023-02-28T05:10:39;10.67;;;6.63;;
54993;SDS011;40891;47.242;8.648;2023-02-28T05:13:04;8.90;;;6.27;;
54993;SDS011;40891;47.242;8.648;2023-02-28T05:15:30;12.00;;;7.00;;
54993;SDS011;40891;47.242;8.648;2023-02-28T05:17:55;10.57;;;6.07;;
54993;SDS011;40891;47.242;8.648;2023-02-28T05:20:20;9.50;;;5.70;;
54993;SDS011;40891;47.242;8.648;2023-02-28T05:22:46;11.77;;;6.50;;
54993;SDS011;40891;47.242;8.648;2023-02-28T05:25:13;9.87;;;6.57;;
54993;SDS011;40891;47.242;8.648;2023-02-28T05:27:42;10.00;;;5.77;;
54993;SDS011;40891;47.242;8.648;2023-02-28T05:30:08;10.27;;;6.33;;
54993;SDS011;40891;47.242;8.648;2023-02-28T05:32:36;12.13;;;7.20;;
54993;SDS011;40891;47.242;8.648;2023-02-28T05:35:02;11.27;;;6.53;;
54993;SDS011;40891;47.242;8.648;2023-02-28T05:37:27;8.97;;;6.20;;
54993;SDS011;40891;47.242;8.648;2023-02-28T05:39:53;9.73;;;6.70;;
54993;SDS011;40891;47.242;8.648;2023-02-28T05:42:18;10.03;;;5.83;;
54993;SDS011;40891;47.242;8.648;2023-02-28T05:44:43;10.87;;;6.13;;
54993;SDS011;40891;47.242;8.648;2023-02-28T05:47:09;10.30;;;6.23;;
54993;SDS011;40891;47.242;8.648;2023-02-28T05:49:34;11.67;;;6.37;;
54993;SDS011;40891;47.242;8.648;2023-02-28T05:51:59;8.53;;;6.03;;
54993;SDS011;40891;47.242;8.648;2023-02-28T05:54:24;11.20;;;6.20;;
54993;SDS011;40891;47.242;8.648;2023-02-28T05:56:50;10.87;;;7.00;;
54993;SDS011;40891;47.242;8.648;2023-02-28T05:59:15;12.07;;;6.43;;
54993;SDS011;40891;47.242;8.648;2023-02-28T06:01:41;10.57;;;6.53;;
54993;SDS011;40891;47.242;8.648;2023-02-28T06:04:13;10.57;;;6.50;;
54993;SDS011;40891;47.242;8.648;2023-02-28T06:06:43;12.27;;;7.13;;
54993;SDS011;40891;47.242;8.648;2023-02-28T06:09:11;10.70;;;6.37;;
54993;SDS011;40891;47.242;8.648;2023-02-28T06:11:37;8.93;;;6.07;;
54993;SDS011;40891;47.242;8.648;2023-02-28T06:14:02;10.00;;;6.53;;
54993;SDS011;40891;47.242;8.648;2023-02-28T06:16:28;10.63;;;7.10;;
54993;SDS011;40891;47.242;8.648;2023-02-28T06:18:56;11.47;;;6.77;;
54993;SDS011;40891;47.242;8.648;2023-02-28T06:21:23;8.70;;;5.93;;
54993;SDS011;40891;47.242;8.648;2023-02-28T06:23:49;11.97;;;6.77;;
54993;SDS011;40891;47.242;8.648;2023-02-28T06:26:14;12.07;;;6.33;;
54993;SDS011;40891;47.242;8.648;2023-02-28T06:28:39;9.50;;;6.27;;
54993;SDS011;40891;47.242;8.648;2023-02-28T06:31:06;10.43;;;6.63;;
54993;SDS011;40891;47.242;8.648;2023-02-28T06:33:36;11.30;;;6.70;;
54993;SDS011;40891;47.242;8.648;2023-02-28T06:36:02;9.77;;;6.30;;
54993;SDS011;40891;47.242;8.648;2023-02-28T06:38:28;10.33;;;6.50;;
54993;SDS011;40891;47.242;8.648;2023-02-28T06:40:54;11.97;;;6.67;;
54993;SDS011;40891;47.242;8.648;2023-02-28T06:43:20;10.33;;;6.40;;
54993;SDS011;40891;47.242;8.648;2023-02-28T06:45:46;8.63;;;6.20;;
54993;SDS011;40891;47.242;8.648;2023-02-28T06:48:11;10.77;;;6.30;;
54993;SDS011;40891;47.242;8.648;2023-02-28T06:50:36;11.07;;;7.20;;
54993;SDS011;40891;47.242;8.648;2023-02-28T06:53:02;10.17;;;6.83;;
54993;SDS011;40891;47.242;8.648;2023-02-28T06:55:27;10.30;;;6.57;;
54993;SDS011;40891;47.242;8.648;2023-02-28T06:57:53;10.47;;;6.13;;
54993;SDS011;40891;47.242;8.648;2023-02-28T07:00:20;9.47;;;6.23;;
54993;SDS011;40891;47.242;8.648;2023-02-28T07:02:46;10.37;;;6.70;;
54993;SDS011;40891;47.242;8.648;2023-02-28T07:05:12;10.13;;;6.20;;
54993;SDS011;40891;47.242;8.648;2023-02-28T07:07:38;10.63;;;6.47;;
54993;SDS011;40891;47.242;8.648;2023-02-28T07:10:05;10.80;;;7.13;;
54993;SDS011;40891;47.242;8.648;2023-02-28T07:12:31;10.83;;;6.17;;
54993;SDS011;40891;47.242;8.648;2023-02-28T07:14:56;10.27;;;6.13;;
54993;SDS011;40891;47.242;8.648;2023-02-28T07:17:22;10.67;;;6.67;;
54993;SDS011;40891;47.242;8.648;2023-02-28T07:19:47;9.27;;;6.47;;
54993;SDS011;40891;47.242;8.648;2023-02-28T07:22:12;11.40;;;6.43;;
54993;SDS011;40891;47.242;8.648;2023-02-28T07:24:38;11.00;;;6.77;;
54993;SDS011;40891;47.242;8.648;2023-02-28T07:27:03;9.77;;;6.17;;
54993;SDS011;40891;47.242;8.648;2023-02-28T07:29:28;13.10;;;7.03;;
54993;SDS011;40891;47.242;8.648;2023-02-28T07:31:54;10.80;;;6.87;;
54993;SDS011;40891;47.242;8.648;2023-02-28T07:34:20;10.00;;;6.20;;
54993;SDS011;40891;47.242;8.648;2023-02-28T07:36:46;10.53;;;6.37;;
54993;SDS011;40891;47.242;8.648;2023-02-28T07:39:11;11.53;;;6.73;;
54993;SDS011;40891;47.242;8.648;2023-02-28T07:41:36;12.50;;;6.50;;
54993;SDS011;40891;47.242;8.648;2023-02-28T07:44:08;10.23;;;6.13;;
54993;SDS011;40891;47.242;8.648;2023-02-28T07:46:34;9.50;;;5.77;;
54993;SDS011;40891;47.242;8.648;2023-02-28T07:49:00;8.47;;;5.97;;
54993;SDS011;40891;47.242;8.648;2023-02-28T07:51:27;10.80;;;6.10;;
54993;SDS011;40891;47.242;8.648;2023-02-28T07:53:56;9.23;;;5.93;;
54993;SDS011;40891;47.242;8.648;2023-02-28T07:56:22;9.87;;;6.17;;
54993;SDS011;40891;47.242;8.648;2023-02-28T07:58:47;12.93;;;6.23;;
54993;SDS011;40891;47.242;8.648;2023-02-28T08:01:12;8.87;;;6.27;;
54993;SDS011;40891;47.242;8.648;2023-02-28T08:03:39;9.07;;;6.33;;
54993;SDS011;40891;47.242;8.648;2023-02-28T08:06:05;8.07;;;6.03;;
54993;SDS011;40891;47.242;8.648;2023-02-28T08:08:32;10.87;;;6.63;;
54993;SDS011;40891;47.242;8.648;2023-02-28T08:10:58;12.40;;;6.60;;
54993;SDS011;40891;47.242;8.648;2023-02-28T08:13:27;8.10;;;6.07;;
54993;SDS011;40891;47.242;8.648;2023-02-28T08:15:54;9.13;;;6.57;;
54993;SDS011;40891;47.242;8.648;2023-02-28T08:18:19;8.93;;;6.07;;
54993;SDS011;40891;47.242;8.648;2023-02-28T08:20:45;12.47;;;6.07;;
54993;SDS011;40891;47.242;8.648;2023-02-28T08:23:10;10.30;;;6.37;;
54993;SDS011;40891;47.242;8.648;2023-02-28T08:25:36;9.93;;;6.70;;
54993;SDS011;40891;47.242;8.648;2023-02-28T08:28:01;13.10;;;6.13;;
54993;SDS011;40891;47.242;8.648;2023-02-28T08:30:26;11.97;;;6.47;;
54993;SDS011;40891;47.242;8.648;2023-02-28T08:32:52;10.07;;;6.30;;
54993;SDS011;40891;47.242;8.648;2023-02-28T08:35:17;11.20;;;6.63;;
54993;SDS011;40891;47.242;8.648;2023-02-28T08:37:42;8.47;;;5.90;;
54993;SDS011;40891;47.242;8.648;2023-02-28T08:40:08;9.53;;;6.17;;
54993;SDS011;40891;47.242;8.648;2023-02-28T08:42:34;11.30;;;6.47;;
54993;SDS011;40891;47.242;8.648;2023-02-28T08:44:59;11.67;;;6.43;;
54993;SDS011;40891;47.242;8.648;2023-02-28T08:47:24;10.43;;;6.27;;
54993;SDS011;40891;47.242;8.648;2023-02-28T08:49:50;10.03;;;6.20;;
54993;SDS011;40891;47.242;8.648;2023-02-28T08:52:15;9.33;;;6.20;;
54993;SDS011;40891;47.242;8.648;2023-02-28T08:54:40;9.17;;;6.37;;
54993;SDS011;40891;47.242;8.648;2023-02-28T08:57:06;9.00;;;6.27;;
54993;SDS011;40891;47.242;8.648;2023-02-28T08:59:31;11.03;;;6.10;;
54993;SDS011;40891;47.242;8.648;2023-02-28T09:01:57;11.07;;;6.33;;
54993;SDS011;40891;47.242;8.648;2023-02-28T09:04:22;11.70;;;6.03;;
54993;SDS011;40891;47.242;8.648;2023-02-28T09:06:47;7.93;;;6.00;;
54993;SDS011;40891;47.242;8.648;2023-02-28T09:09:13;9.83;;;6.03;;
54993;SDS011;40891;47.242;8.648;2023-02-28T09:11:39;13.90;;;6.73;;
54993;SDS011;40891;47.242;8.648;2023-02-28T09:14:04;10.67;;;6.27;;
54993;SDS011;40891;47.242;8.648;2023-02-28T09:16:30;9.30;;;6.17;;
54993;SDS011;40891;47.242;8.648;2023-02-28T09:18:57;10.00;;;6.47;;
54993;SDS011;40891;47.242;8.648;2023-02-28T09:21:22;10.93;;;6.63;;
54993;SDS011;40891;47.242;8.648;2023-02-28T09:23:49;9.83;;;6.03;;
54993;SDS011;40891;47.242;8.648;2023-02-28T09:28:45;11.23;;;7.20;;
54993;SDS011;40891;47.242;8.648;2023-02-28T09:31:14;10.53;;;6.73;;
54993;SDS011;40891;47.242;8.648;2023-02-28T09:33:45;10.67;;;6.33;;
54993;SDS011;40891;47.242;8.648;2023-02-28T09:36:11;10.33;;;6.80;;
54993;SDS011;40891;47.242;8.648;2023-02-28T09:38:37;10.73;;;6.93;;
54993;SDS011;40891;47.242;8.648;2023-02-28T09:41:03;12.73;;;6.50;;
54993;SDS011;40891;47.242;8.648;2023-02-28T09:43:37;10.83;;;7.03;;
54993;SDS011;40891;47.242;8.648;2023-02-28T09:48:44;11.37;;;6.70;;
54993;SDS011;40891;47.242;8.648;2023-02-28T09:51:27;11.10;;;6.73;;
54993;SDS011;40891;47.242;8.648;2023-02-28T09:53:53;12.23;;;7.00;;
54993;SDS011;40891;47.242;8.648;2023-02-28T09:56:24;11.53;;;6.50;;
54993;SDS011;40891;47.242;8.648;2023-02-28T10:16:06;10.07;;;5.90;;
54993;SDS011;40891;47.242;8.648;2023-02-28T10:18:49;10.97;;;6.80;;
54993;SDS011;40891;47.242;8.648;2023-02-28T10:24:10;9.77;;;6.40;;
54993;SDS011;40891;47.242;8.648;2023-02-28T10:27:00;10.77;;;6.57;;
54993;SDS011;40891;47.242;8.648;2023-02-28T10:29:37;11.40;;;6.67;;
54993;SDS011;40891;47.242;8.648;2023-02-28T10:32:08;9.97;;;6.50;;
54993;SDS011;40891;47.242;8.648;2023-02-28T10:34:37;9.73;;;6.63;;
54993;SDS011;40891;47.242;8.648;2023-02-28T10:37:03;11.00;;;6.90;;
54993;SDS011;40891;47.242;8.648;2023-02-28T10:42:04;12.43;;;6.17;;
54993;SDS011;40891;47.242;8.648;2023-02-28T10:44:32;11.67;;;6.70;;
54993;SDS011;40891;47.242;8.648;2023-02-28T10:46:57;10.90;;;7.50;;
54993;SDS011;40891;47.242;8.648;2023-02-28T10:49:24;11.97;;;7.13;;
54993;SDS011;40891;47.242;8.648;2023-02-28T10:51:54;10.23;;;6.60;;
54993;SDS011;40891;47.242;8.648;2023-02-28T10:54:34;9.07;;;6.83;;
54993;SDS011;40891;47.242;8.648;2023-02-28T10:57:08;10.23;;;6.93;;
54993;SDS011;40891;47.242;8.648;2023-02-28T10:59:41;12.33;;;7.23;;
54993;SDS011;40891;47.242;8.648;2023-02-28T11:02:40;9.67;;;6.90;;
54993;SDS011;40891;47.242;8.648;2023-02-28T11:05:00;11.40;;;7.33;;
54993;SDS011;40891;47.242;8.648;2023-02-28T11:07:26;9.00;;;6.27;;
54993;SDS011;40891;47.242;8.648;2023-02-28T11:09:53;10.07;;;7.00;;
54993;SDS011;40891;47.242;8.648;2023-02-28T11:12:34;12.27;;;7.07;;
54993;SDS011;40891;47.242;8.648;2023-02-28T11:15:26;14.07;;;7.20;;
54993;SDS011;40891;47.242;8.648;2023-02-28T11:17:55;12.00;;;6.80;;
54993;SDS011;40891;47.242;8.648;2023-02-28T11:20:24;11.53;;;7.07;;
54993;SDS011;40891;47.242;8.648;2023-02-28T11:22:51;9.77;;;6.50;;
54993;SDS011;40891;47.242;8.648;2023-02-28T11:25:24;9.40;;;6.90;;
54993;SDS011;40891;47.242;8.648;2023-02-28T11:27:56;9.33;;;6.70;;
54993;SDS011;40891;47.242;8.648;2023-02-28T11:30:30;10.50;;;7.30;;
54993;SDS011;40891;47.242;8.648;2023-02-28T11:32:57;9.70;;;6.20;;
54993;SDS011;40891;47.242;8.648;2023-02-28T11:38:02;11.27;;;6.93;;
54993;SDS011;40891;47.242;8.648;2023-02-28T11:40:36;9.40;;;6.73;;
54993;SDS011;40891;47.242;8.648;2023-02-28T11:45:59;14.33;;;7.07;;
54993;SDS011;40891;47.242;8.648;2023-02-28T11:48:46;10.00;;;6.57;;
54993;SDS011;40891;47.242;8.648;2023-02-28T11:51:21;10.67;;;6.50;;
54993;SDS011;40891;47.242;8.648;2023-02-28T11:56:44;10.83;;;7.37;;
54993;SDS011;40891;47.242;8.648;2023-02-28T12:04:50;11.80;;;7.40;;
54993;SDS011;40891;47.242;8.648;2023-02-28T12:07:31;9.77;;;6.93;;
54993;SDS011;40891;47.242;8.648;2023-02-28T12:18:19;12.33;;;6.83;;
54993;SDS011;40891;47.242;8.648;2023-02-28T12:23:58;10.33;;;7.00;;
54993;SDS011;40891;47.242;8.648;2023-02-28T12:32:54;8.73;;;6.67;;
54993;SDS011;40891;47.242;8.648;2023-02-28T12:35:10;9.13;;;6.53;;
54993;SDS011;40891;47.242;8.648;2023-02-28T12:37:43;10.70;;;7.60;;
54993;SDS011;40891;47.242;8.648;2023-02-28T12:40:16;11.30;;;6.87;;
54993;SDS011;40891;47.242;8.648;2023-02-28T12:42:47;10.20;;;6.93;;
54993;SDS011;40891;47.242;8.648;2023-02-28T12:45:19;10.63;;;6.93;;
54993;SDS011;40891;47.242;8.648;2023-02-28T12:47:52;11.73;;;7.10;;
54993;SDS011;40891;47.242;8.648;2023-02-28T12:50:22;10.47;;;7.03;;
54993;SDS011;40891;47.242;8.648;2023-02-28T12:55:46;9.93;;;6.57;;
54993;SDS011;40891;47.242;8.648;2023-02-28T13:09:14;10.40;;;6.90;;
54993;SDS011;40891;47.242;8.648;2023-02-28T13:16:55;10.57;;;6.93;;
54993;SDS011;40891;47.242;8.648;2023-02-28T13:19:22;11.27;;;6.80;;
54993;SDS011;40891;47.242;8.648;2023-02-28T13:21:51;11.00;;;6.87;;
54993;SDS011;40891;47.242;8.648;2023-02-28T13:27:17;9.73;;;7.10;;
54993;SDS011;40891;47.242;8.648;2023-02-28T13:29:49;12.13;;;7.53;;
54993;SDS011;40891;47.242;8.648;2023-02-28T13:45:29;13.87;;;7.90;;
54993;SDS011;40891;47.242;8.648;2023-02-28T13:47:36;12.03;;;7.90;;
54993;SDS011;40891;47.242;8.648;2023-02-28T13:55:43;13.90;;;7.23;;
54993;SDS011;40891;47.242;8.648;2023-02-28T14:06:48;10.97;;;7.30;;
54993;SDS011;40891;47.242;8.648;2023-02-28T14:09:24;10.70;;;7.53;;
54993;SDS011;40891;47.242;8.648;2023-02-28T14:11:53;12.47;;;7.93;;
54993;SDS011;40891;47.242;8.648;2023-02-28T14:16:59;13.53;;;7.70;;
54993;SDS011;40891;47.242;8.648;2023-02-28T14:19:27;12.00;;;7.60;;
54993;SDS011;40891;47.242;8.648;2023-02-28T14:22:12;10.80;;;7.97;;
54993;SDS011;40891;47.242;8.648;2023-02-28T14:24:56;12.53;;;7.93;;
54993;SDS011;40891;47.242;8.648;2023-02-28T14:27:35;12.73;;;7.77;;
54993;SDS011;40891;47.242;8.648;2023-02-28T14:33:26;14.37;;;8.07;;
54993;SDS011;40891;47.242;8.648;2023-02-28T14:36:14;16.80;;;8.13;;
54993;SDS011;40891;47.242;8.648;2023-02-28T14:38:47;12.70;;;7.87;;
54993;SDS011;40891;47.242;8.648;2023-02-28T14:41:28;11.47;;;7.50;;
54993;SDS011;40891;47.242;8.648;2023-02-28T14:43:57;12.37;;;8.07;;
54993;SDS011;40891;47.242;8.648;2023-02-28T14:46:43;13.63;;;7.90;;
54993;SDS011;40891;47.242;8.648;2023-02-28T14:49:29;14.83;;;8.10;;
54993;SDS011;40891;47.242;8.648;2023-02-28T14:54:35;12.30;;;8.30;;
54993;SDS011;40891;47.242;8.648;2023-02-28T14:57:01;11.90;;;8.43;;
54993;SDS011;40891;47.242;8.648;2023-02-28T14:59:28;12.20;;;8.40;;
54993;SDS011;40891;47.242;8.648;2023-02-28T15:04:57;14.23;;;7.57;;
54993;SDS011;40891;47.242;8.648;2023-02-28T15:07:35;11.83;;;7.53;;
54993;SDS011;40891;47.242;8.648;2023-02-28T15:12:56;16.03;;;8.40;;
54993;SDS011;40891;47.242;8.648;2023-02-28T15:18:41;16.37;;;8.80;;
54993;SDS011;40891;47.242;8.648;2023-02-28T15:21:11;14.27;;;8.63;;
54993;SDS011;40891;47.242;8.648;2023-02-28T15:23:40;12.20;;;8.00;;
54993;SDS011;40891;47.242;8.648;2023-02-28T15:26:10;12.43;;;8.20;;
54993;SDS011;40891;47.242;8.648;2023-02-28T15:28:41;13.43;;;9.00;;
54993;SDS011;40891;47.242;8.648;2023-02-28T15:31:18;10.87;;;7.23;;
54993;SDS011;40891;47.242;8.648;2023-02-28T15:33:57;11.37;;;8.03;;
54993;SDS011;40891;47.242;8.648;2023-02-28T15:36:31;14.53;;;8.27;;
54993;SDS011;40891;47.242;8.648;2023-02-28T15:38:58;12.73;;;8.33;;
54993;SDS011;40891;47.242;8.648;2023-02-28T15:41:26;13.73;;;8.67;;
54993;SDS011;40891;47.242;8.648;2023-02-28T15:49:23;14.40;;;8.77;;
54993;SDS011;40891;47.242;8.648;2023-02-28T15:51:50;14.50;;;8.27;;
54993;SDS011;40891;47.242;8.648;2023-02-28T15:54:50;12.87;;;7.60;;
54993;SDS011;40891;47.242;8.648;2023-02-28T15:57:13;16.07;;;8.63;;
54993;SDS011;40891;47.242;8.648;2023-02-28T15:59:45;13.70;;;8.87;;
54993;SDS011;40891;47.242;8.648;2023-02-28T16:02:17;11.83;;;8.43;;
54993;SDS011;40891;47.242;8.648;2023-02-28T16:04:56;13.07;;;8.33;;
54993;SDS011;40891;47.242;8.648;2023-02-28T16:07:42;13.17;;;8.73;;
54993;SDS011;40891;47.242;8.648;2023-02-28T16:10:09;12.73;;;8.60;;
54993;SDS011;40891;47.242;8.648;2023-02-28T16:12:37;17.23;;;9.73;;
54993;SDS011;40891;47.242;8.648;2023-02-28T16:15:20;13.90;;;9.20;;
54993;SDS011;40891;47.242;8.648;2023-02-28T16:17:49;15.13;;;8.83;;
54993;SDS011;40891;47.242;8.648;2023-02-28T16:20:22;13.93;;;8.27;;
54993;SDS011;40891;47.242;8.648;2023-02-28T16:22:50;16.80;;;9.47;;
54993;SDS011;40891;47.242;8.648;2023-02-28T16:25:17;15.07;;;9.03;;
54993;SDS011;40891;47.242;8.648;2023-02-28T16:27:45;13.40;;;9.27;;
54993;SDS011;40891;47.242;8.648;2023-02-28T16:30:24;15.67;;;9.63;;
54993;SDS011;40891;47.242;8.648;2023-02-28T16:32:51;16.17;;;9.30;;
54993;SDS011;40891;47.242;8.648;2023-02-28T16:35:19;15.50;;;9.50;;
54993;SDS011;40891;47.242;8.648;2023-02-28T16:37:45;14.57;;;9.10;;
54993;SDS011;40891;47.242;8.648;2023-02-28T16:40:28;15.47;;;9.90;;
54993;SDS011;40891;47.242;8.648;2023-02-28T16:42:59;18.83;;;10.10;;
54993;SDS011;40891;47.242;8.648;2023-02-28T16:45:26;16.63;;;10.00;;
54993;SDS011;40891;47.242;8.648;2023-02-28T16:47:53;18.70;;;10.37;;
54993;SDS011;40891;47.242;8.648;2023-02-28T16:50:21;15.37;;;9.60;;
54993;SDS011;40891;47.242;8.648;2023-02-28T16:52:48;16.93;;;10.17;;
54993;SDS011;40891;47.242;8.648;2023-02-28T16:55:17;16.20;;;10.17;;
54993;SDS011;40891;47.242;8.648;2023-02-28T16:57:42;17.80;;;9.83;;
54993;SDS011;40891;47.242;8.648;2023-02-28T17:00:11;17.03;;;10.13;;
54993;SDS011;40891;47.242;8.648;2023-02-28T17:02:38;17.10;;;10.63;;
54993;SDS011;40891;47.242;8.648;2023-02-28T17:05:04;18.57;;;11.03;;
54993;SDS011;40891;47.242;8.648;2023-02-28T17:07:31;17.13;;;10.50;;
54993;SDS011;40891;47.242;8.648;2023-02-28T17:09:57;15.80;;;9.83;;
54993;SDS011;40891;47.242;8.648;2023-02-28T17:12:22;20.50;;;9.97;;
54993;SDS011;40891;47.242;8.648;2023-02-28T17:14:47;14.60;;;9.70;;
54993;SDS011;40891;47.242;8.648;2023-02-28T17:17:17;21.17;;;10.67;;
54993;SDS011;40891;47.242;8.648;2023-02-28T17:19:45;15.37;;;9.60;;
54993;SDS011;40891;47.242;8.648;2023-02-28T17:22:10;16.37;;;9.97;;
54993;SDS011;40891;47.242;8.648;2023-02-28T17:24:36;17.53;;;10.70;;
54993;SDS011;40891;47.242;8.648;2023-02-28T17:27:01;17.30;;;10.67;;
54993;SDS011;40891;47.242;8.648;2023-02-28T17:29:27;15.87;;;9.83;;
54993;SDS011;40891;47.242;8.648;2023-02-28T17:31:53;15.67;;;9.73;;
54993;SDS011;40891;47.242;8.648;2023-02-28T17:34:18;17.77;;;10.33;;